createdAt,value
2022-12-02T00:00:58.088Z,1.88
2022-12-02T00:03:25.660Z,1.97
2022-12-02T00:05:55.250Z,1.91
2022-12-02T00:08:28.717Z,1.89
2022-12-02T00:10:57.042Z,1.88
2022-12-02T00:13:29.666Z,2.09
2022-12-02T00:15:58.863Z,2.02
2022-12-02T00:18:25.952Z,1.86
2022-12-02T00:20:52.496Z,1.86
2022-12-02T00:23:19.452Z,1.98
2022-12-02T00:25:48.683Z,1.85
2022-12-02T00:28:15.859Z,1.99
2022-12-02T00:30:42.579Z,1.89
2022-12-02T00:33:09.401Z,1.92
2022-12-02T00:35:37.176Z,1.83
2022-12-02T00:38:05.206Z,1.73
2022-12-02T00:40:31.789Z,1.79
2022-12-02T00:43:20.875Z,1.82
2022-12-02T00:46:06.536Z,1.84
2022-12-02T00:48:33.448Z,1.91
2022-12-02T00:50:59.861Z,1.87
2022-12-02T00:53:26.248Z,1.92
2022-12-02T00:55:52.708Z,2.19
2022-12-02T00:58:19.180Z,1.93
2022-12-02T01:00:45.622Z,1.84
2022-12-02T01:03:12.641Z,1.93
2022-12-02T01:08:14.768Z,1.80
2022-12-02T01:10:41.217Z,1.98
2022-12-02T01:13:07.583Z,1.85
2022-12-02T01:15:34.215Z,1.87
2022-12-02T01:18:00.624Z,1.87
2022-12-02T01:20:27.276Z,2.03
2022-12-02T01:22:54.432Z,1.90
2022-12-02T01:25:20.814Z,1.98
2022-12-02T01:27:47.302Z,1.90
2022-12-02T01:30:14.655Z,1.94
2022-12-02T01:32:41.078Z,1.82
2022-12-02T01:35:07.669Z,1.88
2022-12-02T01:37:34.088Z,1.93
2022-12-02T01:40:00.536Z,1.91
2022-12-02T01:42:27.014Z,2.00
2022-12-02T01:44:53.844Z,1.89
2022-12-02T01:47:20.744Z,1.94
2022-12-02T01:49:47.338Z,1.88
2022-12-02T01:52:13.956Z,1.94
2022-12-02T01:54:40.325Z,1.99
2022-12-02T01:57:10.497Z,1.95
2022-12-02T01:59:36.958Z,1.78
2022-12-02T02:02:03.376Z,1.83
2022-12-02T02:04:29.827Z,1.83
2022-12-02T02:06:56.255Z,1.83
2022-12-02T02:09:22.686Z,2.00
2022-12-02T02:11:49.104Z,2.04
2022-12-02T02:14:15.509Z,2.01
2022-12-02T02:16:42.035Z,1.84
2022-12-02T02:19:13.362Z,1.80
2022-12-02T02:21:45.509Z,2.08
2022-12-02T02:24:11.980Z,2.09
2022-12-02T02:26:38.491Z,2.00
2022-12-02T02:29:05.045Z,1.87
2022-12-02T02:31:31.476Z,1.85
2022-12-02T02:33:57.913Z,1.91
2022-12-02T02:36:24.458Z,1.94
2022-12-02T02:38:51.418Z,1.93
2022-12-02T02:41:18.233Z,2.06
2022-12-02T02:43:44.824Z,2.20
2022-12-02T02:46:11.771Z,2.10
2022-12-02T02:48:39.244Z,2.14
2022-12-02T02:51:07.202Z,2.13
2022-12-02T02:53:33.736Z,2.12
2022-12-02T02:56:00.185Z,2.19
2022-12-02T02:58:27.320Z,2.06
2022-12-02T03:01:10.098Z,2.08
2022-12-02T03:03:42.148Z,2.00
2022-12-02T03:06:11.155Z,2.12
2022-12-02T03:08:41.823Z,2.34
2022-12-02T03:11:08.529Z,2.21
2022-12-02T03:13:38.155Z,2.08
2022-12-02T03:16:08.816Z,2.14
2022-12-02T03:18:36.267Z,2.21
2022-12-02T03:21:03.221Z,2.27
2022-12-02T03:23:32.139Z,1.99
2022-12-02T03:25:59.667Z,2.19
2022-12-02T03:28:26.255Z,2.02
2022-12-02T03:30:52.994Z,2.02
2022-12-02T03:33:19.912Z,2.13
2022-12-02T03:35:46.665Z,1.96
2022-12-02T03:38:13.110Z,2.05
2022-12-02T03:40:39.596Z,1.98
2022-12-02T03:43:06.077Z,2.04
2022-12-02T03:45:33.676Z,2.11
2022-12-02T03:48:00.535Z,2.10
2022-12-02T03:50:27.191Z,2.13
2022-12-02T03:52:54.604Z,2.09
2022-12-02T03:55:21.285Z,1.93
2022-12-02T03:57:47.782Z,2.00
2022-12-02T04:00:16.448Z,2.15
2022-12-02T04:02:43.713Z,2.13
2022-12-02T04:05:10.719Z,2.14
2022-12-02T04:07:37.217Z,2.12
2022-12-02T04:10:04.905Z,2.10
2022-12-02T04:12:31.280Z,2.30
2022-12-02T04:14:57.689Z,2.25
2022-12-02T04:17:24.146Z,2.15
2022-12-02T04:19:50.666Z,2.09
2022-12-02T04:22:17.066Z,2.09
2022-12-02T04:24:43.471Z,2.35
2022-12-02T04:27:09.825Z,2.28
2022-12-02T04:29:36.281Z,2.12
2022-12-02T04:32:02.645Z,2.06
2022-12-02T04:34:29.053Z,2.07
2022-12-02T04:36:55.466Z,2.08
2022-12-02T04:39:21.884Z,1.99
2022-12-02T04:41:48.359Z,2.10
2022-12-02T04:44:18.110Z,2.23
2022-12-02T04:46:44.902Z,2.04
2022-12-02T04:49:11.376Z,2.10
2022-12-02T04:51:38.065Z,2.08
2022-12-02T04:54:04.513Z,2.04
2022-12-02T04:56:31.001Z,2.01
2022-12-02T04:58:57.461Z,2.21
2022-12-02T05:01:23.917Z,2.06
2022-12-02T05:03:50.390Z,2.09
2022-12-02T05:06:16.906Z,2.02
2022-12-02T05:08:43.422Z,2.15
2022-12-02T05:11:09.923Z,2.07
2022-12-02T05:13:36.357Z,2.14
2022-12-02T05:16:02.819Z,2.13
2022-12-02T05:18:29.227Z,2.19
2022-12-02T05:20:55.613Z,2.24
2022-12-02T05:23:22.027Z,2.17
2022-12-02T05:25:48.520Z,2.17
2022-12-02T05:28:14.940Z,1.98
2022-12-02T05:30:41.456Z,2.07
2022-12-02T05:33:08.374Z,2.04
2022-12-02T05:35:34.757Z,2.03
2022-12-02T05:38:04.769Z,2.11
2022-12-02T05:40:32.075Z,2.22
2022-12-02T05:43:13.789Z,2.13
2022-12-02T05:45:40.226Z,2.06
2022-12-02T05:48:11.137Z,2.18
2022-12-02T05:50:37.841Z,2.19
2022-12-02T05:53:04.963Z,2.20
2022-12-02T05:55:31.404Z,2.26
2022-12-02T05:58:00.706Z,2.34
2022-12-02T06:00:27.273Z,2.13
2022-12-02T06:02:58.449Z,2.10
2022-12-02T06:05:33.974Z,2.20
2022-12-02T06:08:20.554Z,2.33
2022-12-02T06:11:01.279Z,2.13
2022-12-02T06:13:31.477Z,2.25
2022-12-02T06:16:00.144Z,2.10
2022-12-02T06:18:33.132Z,2.36
2022-12-02T06:21:04.935Z,2.22
2022-12-02T06:23:32.871Z,2.09
2022-12-02T06:26:00.265Z,2.20
2022-12-02T06:28:38.970Z,2.13
2022-12-02T06:31:35.438Z,2.14
2022-12-02T06:34:15.735Z,2.09
2022-12-02T06:36:42.234Z,2.17
2022-12-02T06:39:23.019Z,2.26
2022-12-02T06:41:50.147Z,2.24
2022-12-02T06:44:40.044Z,2.18
2022-12-02T06:47:37.314Z,2.20
2022-12-02T06:50:06.758Z,2.08
2022-12-02T06:52:37.350Z,2.21
2022-12-02T06:55:24.834Z,2.04
2022-12-02T06:57:51.894Z,1.99
2022-12-02T07:00:18.467Z,2.02
2022-12-02T07:02:45.025Z,2.12
2022-12-02T07:05:20.710Z,2.02
2022-12-02T07:07:47.361Z,2.24
2022-12-02T07:10:30.050Z,2.11
2022-12-02T07:12:58.639Z,2.01
2022-12-02T07:15:34.299Z,1.92
2022-12-02T07:18:21.140Z,2.15
2022-12-02T07:20:48.733Z,2.08
2022-12-02T07:23:27.986Z,1.83
2022-12-02T07:25:56.503Z,2.06
2022-12-02T07:28:33.878Z,1.79
2022-12-02T07:31:19.616Z,1.97
2022-12-02T07:33:46.124Z,1.85
2022-12-02T07:36:12.577Z,1.96
2022-12-02T07:41:25.331Z,1.88
2022-12-02T07:43:51.722Z,1.91
2022-12-02T07:46:18.181Z,2.00
2022-12-02T07:48:44.659Z,1.94
2022-12-02T07:51:11.056Z,1.97
2022-12-02T07:53:37.446Z,2.00
2022-12-02T07:56:04.127Z,2.25
2022-12-02T07:58:55.384Z,2.29
2022-12-02T08:01:19.641Z,2.07
2022-12-02T08:03:46.673Z,2.06
2022-12-02T08:06:13.079Z,2.21
2022-12-02T08:08:39.489Z,2.17
2022-12-02T08:11:05.876Z,2.17
2022-12-02T08:13:32.316Z,2.25
2022-12-02T08:15:58.769Z,2.22
2022-12-02T08:18:25.358Z,2.28
2022-12-02T08:20:51.740Z,2.17
2022-12-02T08:23:18.145Z,2.12
2022-12-02T08:25:44.572Z,2.07
2022-12-02T08:28:11.035Z,2.04
2022-12-02T08:30:37.670Z,1.94
2022-12-02T08:33:04.068Z,2.10
2022-12-02T08:35:30.444Z,2.01
2022-12-02T08:37:56.803Z,2.11
2022-12-02T08:40:23.315Z,2.19
2022-12-02T08:42:49.710Z,2.03
2022-12-02T08:45:16.469Z,2.15
2022-12-02T08:47:42.982Z,2.10
2022-12-02T08:50:10.106Z,2.10
2022-12-02T08:52:36.578Z,2.12
2022-12-02T08:55:03.165Z,2.11
2022-12-02T08:57:29.691Z,2.29
2022-12-02T08:59:56.106Z,2.19
2022-12-02T09:02:22.607Z,2.22
2022-12-02T09:04:49.285Z,2.14
2022-12-02T09:07:15.895Z,2.10
2022-12-02T09:09:42.381Z,2.07
2022-12-02T09:12:08.856Z,1.92
2022-12-02T09:14:35.243Z,2.20
2022-12-02T09:17:01.670Z,2.14
2022-12-02T09:19:28.119Z,2.20
2022-12-02T09:21:54.549Z,1.86
2022-12-02T09:24:21.002Z,2.10
2022-12-02T09:26:47.413Z,2.02
2022-12-02T09:29:13.842Z,2.18
2022-12-02T09:31:40.277Z,2.21
2022-12-02T09:34:06.709Z,2.05
2022-12-02T09:36:33.117Z,2.09
2022-12-02T09:38:59.722Z,2.04
2022-12-02T09:41:26.656Z,1.94
2022-12-02T09:43:53.861Z,2.07
2022-12-02T09:46:24.603Z,1.95
2022-12-02T09:48:51.833Z,1.93
2022-12-02T09:51:18.424Z,2.03
2022-12-02T09:53:46.818Z,1.93
2022-12-02T09:56:22.480Z,1.97
2022-12-02T09:58:55.117Z,1.75
2022-12-02T10:01:21.826Z,1.87
2022-12-02T10:03:50.716Z,1.90
2022-12-02T10:06:28.495Z,2.01
2022-12-02T10:08:57.154Z,2.02
2022-12-02T10:11:28.957Z,2.14
2022-12-02T10:13:56.762Z,2.04
2022-12-02T10:16:23.473Z,1.88
2022-12-02T10:18:50.118Z,1.86
2022-12-02T10:21:16.536Z,1.86
2022-12-02T10:23:57.007Z,1.89
2022-12-02T10:26:23.972Z,2.01
2022-12-02T10:29:26.192Z,2.01
2022-12-02T10:31:54.729Z,2.18
2022-12-02T10:34:22.305Z,2.28
2022-12-02T10:36:49.410Z,2.26
2022-12-02T10:39:22.681Z,2.25
2022-12-02T10:42:13.736Z,2.39
2022-12-02T10:44:42.728Z,2.35
2022-12-02T10:47:25.681Z,2.32
2022-12-02T10:49:57.572Z,2.30
2022-12-02T10:52:26.269Z,2.32
2022-12-02T10:54:54.733Z,2.25
2022-12-02T10:57:24.752Z,2.27
2022-12-02T10:59:53.535Z,2.22
2022-12-02T11:02:23.986Z,2.37
2022-12-02T11:04:51.183Z,2.42
2022-12-02T11:07:20.533Z,2.39
2022-12-02T11:09:52.429Z,2.28
2022-12-02T11:12:57.930Z,2.03
2022-12-02T11:15:51.823Z,2.14
2022-12-02T11:18:30.211Z,2.18
2022-12-02T11:21:03.086Z,2.22
2022-12-02T11:23:30.641Z,2.23
2022-12-02T11:26:08.395Z,2.52
2022-12-02T11:28:38.308Z,2.57
2022-12-02T11:31:10.807Z,2.35
2022-12-02T11:33:43.454Z,2.22
2022-12-02T11:36:12.701Z,2.39
2022-12-02T11:38:51.177Z,2.46
2022-12-02T11:41:19.187Z,2.46
2022-12-02T11:43:45.525Z,2.37
2022-12-02T11:46:17.061Z,2.43
2022-12-02T11:48:53.910Z,2.48
2022-12-02T11:51:40.489Z,2.45
2022-12-02T11:54:14.349Z,2.52
2022-12-02T11:56:42.872Z,2.62
2022-12-02T11:59:24.813Z,2.35
2022-12-02T12:01:51.516Z,2.50
2022-12-02T12:04:29.293Z,2.49
2022-12-02T12:07:00.315Z,2.53
2022-12-02T12:09:28.022Z,2.59
2022-12-02T12:12:27.723Z,2.44
2022-12-02T12:15:01.329Z,2.57
2022-12-02T12:17:33.110Z,2.56
2022-12-02T12:19:59.751Z,2.55
2022-12-02T12:22:29.463Z,2.52
2022-12-02T12:25:33.901Z,2.56
2022-12-02T12:28:00.784Z,2.60
2022-12-02T12:30:27.242Z,2.47
2022-12-02T12:32:53.707Z,2.54
2022-12-02T12:35:20.152Z,2.42
2022-12-02T12:37:46.559Z,2.56
2022-12-02T12:40:13.393Z,2.62
2022-12-02T12:42:39.745Z,2.69
2022-12-02T12:45:06.581Z,2.68
2022-12-02T12:47:33.041Z,2.64
2022-12-02T12:49:59.468Z,2.60
2022-12-02T12:52:25.911Z,2.63
2022-12-02T12:54:52.881Z,2.55
2022-12-02T12:57:20.519Z,2.60
2022-12-02T12:59:46.994Z,2.67
2022-12-02T13:02:13.541Z,2.79
2022-12-02T13:04:40.127Z,2.52
2022-12-02T13:07:06.514Z,2.86
2022-12-02T13:09:32.956Z,2.61
2022-12-02T13:11:59.330Z,2.58
2022-12-02T13:14:25.692Z,2.49
2022-12-02T13:16:52.185Z,2.53
2022-12-02T13:19:18.702Z,2.59
2022-12-02T13:21:45.136Z,2.51
2022-12-02T13:24:11.676Z,2.35
2022-12-02T13:26:38.271Z,2.32
2022-12-02T13:29:04.783Z,2.45
2022-12-02T13:31:31.257Z,2.46
2022-12-02T13:33:57.693Z,2.61
2022-12-02T13:36:24.125Z,2.53
2022-12-02T13:38:50.571Z,2.47
2022-12-02T13:41:17.022Z,2.52
2022-12-02T13:43:43.439Z,2.70
2022-12-02T13:46:10.095Z,2.64
2022-12-02T13:48:36.611Z,2.59
2022-12-02T13:51:04.047Z,2.43
2022-12-02T13:53:30.634Z,2.43
2022-12-02T13:55:57.049Z,2.45
2022-12-02T13:58:25.153Z,2.31
2022-12-02T14:00:51.617Z,2.35
2022-12-02T14:03:18.019Z,2.38
2022-12-02T14:05:44.459Z,2.43
2022-12-02T14:08:10.886Z,2.47
2022-12-02T14:10:37.346Z,2.47
2022-12-02T14:13:03.729Z,2.63
2022-12-02T14:15:30.239Z,2.40
2022-12-02T14:17:56.663Z,2.57
2022-12-02T14:20:23.037Z,2.62
2022-12-02T14:22:49.576Z,2.58
2022-12-02T14:25:16.038Z,2.46
2022-12-02T14:27:42.457Z,2.47
2022-12-02T14:30:09.451Z,2.45
2022-12-02T14:32:37.710Z,2.48
2022-12-02T14:35:05.490Z,2.44
2022-12-02T14:37:31.989Z,2.42
2022-12-02T14:39:58.550Z,2.45
2022-12-02T14:42:25.365Z,2.47
2022-12-02T14:44:52.097Z,2.50
2022-12-02T14:47:18.643Z,2.55
2022-12-02T14:49:46.001Z,2.52
2022-12-02T14:52:12.814Z,2.47
2022-12-02T14:54:39.328Z,2.42
2022-12-02T14:57:06.052Z,2.41
2022-12-02T14:59:32.473Z,2.36
2022-12-02T15:01:58.925Z,2.47
2022-12-02T15:04:28.406Z,2.36
2022-12-02T15:06:54.826Z,2.37
2022-12-02T15:09:21.513Z,2.44
2022-12-02T15:11:47.933Z,2.42
2022-12-02T15:14:14.350Z,2.23
2022-12-02T15:16:40.803Z,2.17
2022-12-02T15:19:07.378Z,2.04
2022-12-02T15:21:33.790Z,2.11
2022-12-02T15:24:00.184Z,2.08
2022-12-02T15:26:26.638Z,2.11
2022-12-02T15:28:53.052Z,2.12
2022-12-02T15:31:19.666Z,2.18
2022-12-02T15:33:46.538Z,2.22
2022-12-02T15:36:13.468Z,2.18
2022-12-02T15:38:40.145Z,2.11
2022-12-02T15:41:06.897Z,2.10
2022-12-02T15:43:33.622Z,2.13
2022-12-02T15:46:00.075Z,2.16
2022-12-02T15:48:26.585Z,2.16
2022-12-02T15:50:55.344Z,2.28
2022-12-02T15:53:22.816Z,2.10
2022-12-02T15:55:49.938Z,2.16
2022-12-02T15:58:16.493Z,2.16
2022-12-02T16:00:42.907Z,1.99
2022-12-02T16:03:09.345Z,2.13
2022-12-02T16:05:35.793Z,2.08
2022-12-02T16:08:02.272Z,2.16
2022-12-02T16:10:28.713Z,2.21
2022-12-02T16:12:55.097Z,2.28
2022-12-02T16:15:21.510Z,2.22
2022-12-02T16:17:47.902Z,2.11
2022-12-02T16:20:14.539Z,2.04
2022-12-02T16:22:40.956Z,2.10
2022-12-02T16:25:07.666Z,2.19
2022-12-02T16:27:34.152Z,2.07
2022-12-02T16:30:00.671Z,2.10
2022-12-02T16:32:27.096Z,1.86
2022-12-02T16:34:53.875Z,1.72
2022-12-02T16:37:22.533Z,1.64
2022-12-02T16:39:49.101Z,1.80
2022-12-02T16:42:16.225Z,1.77
2022-12-02T16:44:42.610Z,1.84
2022-12-02T16:47:09.031Z,1.85
2022-12-02T16:49:35.538Z,1.81
2022-12-02T16:52:01.953Z,1.99
2022-12-02T16:54:28.404Z,1.80
2022-12-02T16:56:56.321Z,1.82
2022-12-02T16:59:24.103Z,1.89
2022-12-02T17:01:50.819Z,1.91
2022-12-02T17:04:17.375Z,1.89
2022-12-02T17:06:43.916Z,1.91
2022-12-02T17:09:10.318Z,2.06
2022-12-02T17:11:36.810Z,1.84
2022-12-02T17:14:03.553Z,1.91
2022-12-02T17:16:30.052Z,1.86
2022-12-02T17:18:56.614Z,1.88
2022-12-02T17:21:23.061Z,1.76
2022-12-02T17:23:49.449Z,1.75
2022-12-02T17:26:15.912Z,1.80
2022-12-02T17:28:42.376Z,1.68
2022-12-02T17:31:08.833Z,1.66
2022-12-02T17:33:35.241Z,1.71
2022-12-02T17:36:01.623Z,1.79
2022-12-02T17:38:28.163Z,1.69
2022-12-02T17:41:10.156Z,1.74
2022-12-02T17:43:38.263Z,1.62
2022-12-02T17:46:04.963Z,1.51
2022-12-02T17:48:31.447Z,1.62
2022-12-02T17:50:58.207Z,1.43
2022-12-02T17:53:24.584Z,1.41
2022-12-02T17:55:51.066Z,1.50
2022-12-02T17:58:17.526Z,1.59
2022-12-02T18:00:43.969Z,1.43
2022-12-02T18:03:10.463Z,1.46
2022-12-02T18:05:36.985Z,1.50
2022-12-02T18:08:03.585Z,1.39
2022-12-02T18:10:30.179Z,1.50
2022-12-02T18:12:56.780Z,1.59
2022-12-02T18:15:23.175Z,1.39
2022-12-02T18:17:49.618Z,1.34
2022-12-02T18:20:16.205Z,1.39
2022-12-02T18:22:42.858Z,1.35
2022-12-02T18:25:09.525Z,1.47
2022-12-02T18:27:35.897Z,1.51
2022-12-02T18:30:02.645Z,1.31
2022-12-02T18:32:29.175Z,1.43
2022-12-02T18:34:55.944Z,1.43
2022-12-02T18:37:22.512Z,1.44
2022-12-02T18:39:49.006Z,1.44
2022-12-02T18:42:15.458Z,1.40
2022-12-02T18:44:41.873Z,1.51
2022-12-02T18:47:08.361Z,1.55
2022-12-02T18:49:38.021Z,1.40
2022-12-02T18:52:08.737Z,1.31
2022-12-02T18:54:35.208Z,1.26
2022-12-02T18:57:01.611Z,1.31
2022-12-02T18:59:28.116Z,1.40
2022-12-02T19:01:54.614Z,1.47
2022-12-02T19:04:21.154Z,1.50
2022-12-02T19:06:47.601Z,1.48
2022-12-02T19:09:14.189Z,1.35
2022-12-02T19:11:40.615Z,1.22
2022-12-02T19:14:07.058Z,1.19
2022-12-02T19:16:33.563Z,1.23
2022-12-02T19:18:59.986Z,1.26
2022-12-02T19:21:26.501Z,1.26
2022-12-02T19:23:52.996Z,1.26
2022-12-02T19:26:19.574Z,1.18
2022-12-02T19:28:46.002Z,1.23
2022-12-02T19:31:12.533Z,1.24
2022-12-02T19:33:39.008Z,1.24
2022-12-02T19:36:05.714Z,1.22
2022-12-02T19:38:32.171Z,1.20
2022-12-02T19:40:58.577Z,1.26
2022-12-02T19:43:25.008Z,1.24
2022-12-02T19:45:51.691Z,1.31
2022-12-02T19:48:18.477Z,1.27
2022-12-02T19:50:44.904Z,1.25
2022-12-02T19:53:11.340Z,1.31
2022-12-02T19:55:37.777Z,1.40
2022-12-02T19:58:04.227Z,1.23
2022-12-02T20:00:30.767Z,1.22
2022-12-02T20:02:57.251Z,1.28
2022-12-02T20:05:23.823Z,1.29
2022-12-02T20:07:50.640Z,1.19
2022-12-02T20:10:17.429Z,1.21
2022-12-02T20:12:43.874Z,1.23
2022-12-02T20:15:10.924Z,1.16
2022-12-02T20:17:37.428Z,1.30
2022-12-02T20:20:09.277Z,1.19
2022-12-02T20:22:35.731Z,1.19
2022-12-02T20:25:02.194Z,0.97
2022-12-02T20:27:28.597Z,1.05
2022-12-02T20:29:55.214Z,0.89
2022-12-02T20:32:21.692Z,0.94
2022-12-02T20:34:48.105Z,0.95
2022-12-02T20:37:14.621Z,0.85
2022-12-02T20:39:42.555Z,0.87
2022-12-02T20:42:10.229Z,0.97
2022-12-02T20:44:36.701Z,0.99
2022-12-02T20:47:03.259Z,1.01
2022-12-02T20:49:30.511Z,1.04
2022-12-02T20:51:56.957Z,1.15
2022-12-02T20:54:23.462Z,1.07
2022-12-02T20:56:49.859Z,1.07
2022-12-02T20:59:16.268Z,1.09
2022-12-02T21:01:42.769Z,1.07
2022-12-02T21:04:09.265Z,1.07
2022-12-02T21:06:35.668Z,1.12
2022-12-02T21:09:02.282Z,1.15
2022-12-02T21:11:28.754Z,1.10
2022-12-02T21:13:55.148Z,1.09
2022-12-02T21:16:21.637Z,1.13
2022-12-02T21:18:48.449Z,1.05
2022-12-02T21:21:15.177Z,1.12
2022-12-02T21:23:41.550Z,1.13
2022-12-02T21:26:07.991Z,1.02
2022-12-02T21:28:34.409Z,0.88
2022-12-02T21:31:00.913Z,0.94
2022-12-02T21:33:27.359Z,0.92
2022-12-02T21:35:53.780Z,0.96
2022-12-02T21:38:20.206Z,1.03
2022-12-02T21:40:46.649Z,0.96
2022-12-02T21:43:16.375Z,1.02
2022-12-02T21:45:43.844Z,0.93
2022-12-02T21:48:10.365Z,0.97
2022-12-02T21:50:36.754Z,0.99
2022-12-02T21:53:03.731Z,0.85
2022-12-02T21:55:30.430Z,0.78
2022-12-02T21:57:56.895Z,0.76
2022-12-02T22:00:23.604Z,0.65
2022-12-02T22:02:50.019Z,0.94
2022-12-02T22:05:17.425Z,0.90
2022-12-02T22:07:44.711Z,0.79
2022-12-02T22:10:18.246Z,0.80
2022-12-02T22:12:45.532Z,0.75
2022-12-02T22:15:13.748Z,0.83
2022-12-02T22:17:40.330Z,0.86
2022-12-02T22:20:08.515Z,0.87
2022-12-02T22:22:35.274Z,0.89
2022-12-02T22:25:01.846Z,0.88
2022-12-02T22:27:28.544Z,0.85
2022-12-02T22:29:55.086Z,0.86
2022-12-02T22:32:22.498Z,0.87
2022-12-02T22:34:48.888Z,0.87
2022-12-02T22:37:15.279Z,0.79
2022-12-02T22:39:41.727Z,0.80
2022-12-02T22:42:08.151Z,0.85
2022-12-02T22:44:34.545Z,0.82
2022-12-02T22:47:00.980Z,0.83
2022-12-02T22:49:27.385Z,0.73
2022-12-02T22:51:53.747Z,0.65
2022-12-02T22:54:20.363Z,0.58
2022-12-02T22:56:46.757Z,0.56
2022-12-02T22:59:13.129Z,0.66
2022-12-02T23:01:39.621Z,0.55
2022-12-02T23:04:06.089Z,0.74
2022-12-02T23:06:32.529Z,0.68
2022-12-02T23:08:58.965Z,0.68
2022-12-02T23:11:25.328Z,0.76
2022-12-02T23:13:51.717Z,0.65
2022-12-02T23:16:18.253Z,0.67
2022-12-02T23:18:44.785Z,0.72
2022-12-02T23:21:11.177Z,0.69
2022-12-02T23:23:37.730Z,0.82
2022-12-02T23:26:04.131Z,0.82
2022-12-02T23:28:30.559Z,0.67
2022-12-02T23:30:57.028Z,0.69
2022-12-02T23:33:23.624Z,0.73
2022-12-02T23:35:50.045Z,0.59
2022-12-02T23:38:16.546Z,0.73
2022-12-02T23:40:42.933Z,0.75
2022-12-02T23:43:09.301Z,0.63
2022-12-02T23:45:35.729Z,0.69
2022-12-02T23:48:02.080Z,0.56
2022-12-02T23:50:28.508Z,0.59
2022-12-02T23:52:54.914Z,0.60
2022-12-02T23:55:22.621Z,0.70
2022-12-02T23:57:49.001Z,0.58
